createdAt,value
2018-11-05T00:01:07.884Z,14.8
2018-11-05T00:11:24.772Z,14.6
2018-11-05T00:16:33.135Z,14.5
2018-11-05T00:26:50.140Z,14.3
2018-11-05T00:37:07.075Z,14
2018-11-05T00:42:15.579Z,13.9
2018-11-05T00:47:24.005Z,13.7
2018-11-05T00:57:41.110Z,13.6
2018-11-05T01:02:52.279Z,13.5
2018-11-05T01:08:00.273Z,13.4
2018-11-05T01:13:06.596Z,13.4
2018-11-05T01:18:15.251Z,13.2
2018-11-05T01:23:23.828Z,13.1
2018-11-05T01:28:32.409Z,13
2018-11-05T01:38:49.535Z,12.8
2018-11-05T01:43:58.025Z,12.7
2018-11-05T01:49:06.686Z,12.7
2018-11-05T01:54:15.330Z,12.6
2018-11-05T01:59:23.890Z,12.5
2018-11-05T02:14:49.666Z,12.4
2018-11-05T02:19:58.182Z,12.3
2018-11-05T02:25:06.870Z,12.3
2018-11-05T02:35:24.010Z,12.2
2018-11-05T02:40:32.685Z,12.2
2018-11-05T02:45:41.320Z,12.2
2018-11-05T02:50:49.903Z,12.2
2018-11-05T02:55:58.400Z,12.3
2018-11-05T03:01:07.102Z,12.3
2018-11-05T03:06:15.517Z,12.3
2018-11-05T03:11:24.105Z,12.3
2018-11-05T03:16:32.827Z,12.3
2018-11-05T03:26:50.075Z,12.4
2018-11-05T03:31:58.742Z,12.4
2018-11-05T03:37:07.219Z,12.4
2018-11-05T03:42:15.828Z,12.5
2018-11-05T03:52:33.005Z,12.4
2018-11-05T03:57:41.582Z,12.4
2018-11-05T04:02:50.209Z,12.4
2018-11-05T04:07:58.771Z,12.4
2018-11-05T04:13:07.379Z,12.5
2018-11-05T04:18:15.953Z,12.5
2018-11-05T04:28:33.141Z,12.7
2018-11-05T04:33:41.804Z,12.8
2018-11-05T04:38:50.175Z,12.8
2018-11-05T04:43:58.805Z,13
2018-11-05T04:49:07.263Z,13
2018-11-05T04:54:15.889Z,13.1
2018-11-05T04:59:24.360Z,13.2
2018-11-05T05:09:41.455Z,13.4
2018-11-05T05:14:50.076Z,13.5
2018-11-05T05:25:07.131Z,13.6
2018-11-05T05:45:41.031Z,13.8
2018-11-05T05:50:49.528Z,13.9
2018-11-05T05:55:58.097Z,13.9
2018-11-05T06:01:06.569Z,14
2018-11-05T06:06:15.059Z,14
2018-11-05T06:11:23.580Z,14.1
2018-11-05T06:16:31.984Z,14.2
2018-11-05T06:21:40.429Z,14.3
2018-11-05T06:26:48.834Z,14.5
2018-11-05T06:31:57.370Z,14.4
2018-11-05T06:37:05.770Z,14.7
2018-11-05T06:42:14.301Z,14.7
2018-11-05T06:47:22.614Z,14.9
2018-11-05T06:52:31.042Z,15
2018-11-05T07:07:56.207Z,15.5
2018-11-05T07:18:12.935Z,15.8
2018-11-05T07:23:21.285Z,16
2018-11-05T07:28:29.617Z,16.1
2018-11-05T07:33:37.914Z,16.3
2018-11-05T07:38:46.236Z,16.4
2018-11-05T07:43:54.445Z,16.5
2018-11-05T07:49:02.826Z,16.8
2018-11-05T07:54:11.089Z,16.9
2018-11-05T08:04:27.619Z,17.2
2018-11-05T08:14:44.121Z,17.4
2018-11-05T08:25:00.474Z,17.8
2018-11-05T08:35:16.886Z,18
2018-11-05T08:40:25.032Z,18.3
2018-11-05T08:45:33.204Z,18.6
2018-11-05T08:50:41.287Z,18.9
2018-11-05T09:06:05.769Z,19.5
2018-11-05T09:16:21.963Z,19.9
2018-11-05T09:21:30.040Z,20.1
2018-11-05T09:26:37.978Z,20.2
2018-11-05T09:31:46.096Z,20.3
2018-11-05T09:36:54.159Z,20.4
2018-11-05T09:47:10.098Z,20.6
2018-11-05T09:52:18.059Z,20.6
2018-11-05T09:57:26.153Z,20.7
2018-11-05T10:02:34.166Z,20.8
2018-11-05T10:07:42.195Z,20.9
2018-11-05T10:12:52.369Z,21
2018-11-05T10:17:58.186Z,21.1
2018-11-05T10:23:06.155Z,21
2018-11-05T10:28:14.144Z,21.3
2018-11-05T10:43:37.947Z,21.5
2018-11-05T10:48:45.974Z,21.6
2018-11-05T10:53:53.915Z,21.8
2018-11-05T10:59:01.870Z,21.9
2018-11-05T11:19:33.554Z,22.5
2018-11-05T11:29:49.358Z,22.8
2018-11-05T11:34:57.255Z,23
2018-11-05T11:40:05.139Z,23.2
2018-11-05T11:45:12.933Z,23.3
2018-11-05T11:55:28.665Z,23.7
2018-11-05T12:00:36.466Z,23.8
2018-11-05T12:10:52.040Z,24.6
2018-11-05T12:15:59.774Z,25
2018-11-05T12:26:15.319Z,25.7
2018-11-05T12:31:23.008Z,26.1
2018-11-05T12:36:30.604Z,26.5
2018-11-05T12:41:38.288Z,26.7
2018-11-05T12:46:45.854Z,27.1
2018-11-05T12:51:53.469Z,27.2
2018-11-05T12:57:01.051Z,27.2
2018-11-05T13:02:08.720Z,27.3
2018-11-05T13:12:23.905Z,27
2018-11-05T13:22:39.034Z,26.6
2018-11-05T13:27:46.756Z,26.4
2018-11-05T13:32:54.387Z,26.3
2018-11-05T13:38:02.025Z,26.1
2018-11-05T13:43:09.659Z,25.9
2018-11-05T13:48:17.316Z,25.6
2018-11-05T14:08:47.932Z,25.3
2018-11-05T14:13:55.679Z,25.1
2018-11-05T14:19:03.281Z,25
2018-11-05T14:24:10.990Z,24.8
2018-11-05T14:29:18.763Z,24.7
2018-11-05T14:34:26.432Z,24.7
2018-11-05T14:39:34.180Z,24.5
2018-11-05T14:44:41.908Z,24.4
2018-11-05T14:54:57.380Z,24.2
2018-11-05T15:00:05.146Z,24
2018-11-05T15:05:12.892Z,23.8
2018-11-05T15:10:20.769Z,23.6
2018-11-05T15:20:36.425Z,23.2
2018-11-05T15:25:44.279Z,23.2
2018-11-05T15:35:59.977Z,22.9
2018-11-05T15:56:31.449Z,22.2
2018-11-05T16:06:47.257Z,21.9
2018-11-05T16:17:03.072Z,21.6
2018-11-05T16:27:18.935Z,21.4
2018-11-05T16:37:34.841Z,21.1
2018-11-05T16:42:42.788Z,21.1
2018-11-05T16:47:51.566Z,21
2018-11-05T16:52:59.488Z,21
2018-11-05T16:58:06.667Z,20.8
2018-11-05T17:03:14.764Z,20.8
2018-11-05T17:08:22.742Z,20.7
2018-11-05T17:13:30.673Z,20.6
2018-11-05T17:18:38.769Z,20.6
2018-11-05T17:23:46.788Z,20.4
2018-11-05T17:34:02.908Z,20.3
2018-11-05T17:39:10.942Z,20.2
2018-11-05T17:44:20.367Z,20.2
2018-11-05T17:49:27.043Z,20.1
2018-11-05T17:59:43.127Z,20
2018-11-05T18:04:51.150Z,19.9
2018-11-05T18:15:07.443Z,19.6
2018-11-05T18:20:15.353Z,19.5
2018-11-05T18:25:23.326Z,19.5
2018-11-05T18:30:31.586Z,19.4
2018-11-05T18:35:39.602Z,19.3
2018-11-05T18:40:47.801Z,19.3
2018-11-05T18:45:55.838Z,19.2
2018-11-05T18:51:03.973Z,19.2
2018-11-05T18:56:12.068Z,19
2018-11-05T19:01:20.156Z,19
2018-11-05T19:16:44.456Z,18.9
2018-11-05T19:21:52.575Z,18.9
2018-11-05T19:27:00.706Z,18.8
2018-11-05T19:32:08.855Z,18.7
2018-11-05T19:37:16.982Z,18.7
2018-11-05T19:42:25.126Z,18.7
2018-11-05T19:52:41.384Z,18.5
2018-11-05T20:02:57.664Z,18.3
2018-11-05T20:08:05.889Z,18.3
2018-11-05T20:13:14.111Z,18.3
2018-11-05T20:18:22.217Z,18.2
2018-11-05T20:23:30.407Z,18.2
2018-11-05T20:28:38.543Z,18.1
2018-11-05T20:33:46.732Z,18.1
2018-11-05T20:38:54.825Z,18
2018-11-05T20:44:03.052Z,17.9
2018-11-05T20:49:11.219Z,17.8
2018-11-05T20:59:27.566Z,17.7
2018-11-05T21:04:35.803Z,17.6
2018-11-05T21:09:44.032Z,17.5
2018-11-05T21:14:52.218Z,17.4
2018-11-05T21:20:00.438Z,17.4
2018-11-05T21:25:08.648Z,17.4
2018-11-05T21:30:16.838Z,17.3
2018-11-05T21:35:25.028Z,17.2
2018-11-05T21:40:33.236Z,17.2
2018-11-05T21:45:41.474Z,17.2
2018-11-05T21:55:57.922Z,17.2
2018-11-05T22:01:06.112Z,17.2
2018-11-05T22:11:22.760Z,17.1
2018-11-05T22:16:30.758Z,17.1
2018-11-05T22:21:38.904Z,17.1
2018-11-05T22:26:47.240Z,17.1
2018-11-05T22:31:55.683Z,17
2018-11-05T22:42:12.014Z,17.1
2018-11-05T22:47:20.251Z,17.1
2018-11-05T22:52:28.501Z,17.1
2018-11-05T22:57:36.647Z,17.1
2018-11-05T23:02:45.008Z,17.1
2018-11-05T23:13:01.565Z,17
2018-11-05T23:18:09.849Z,17
2018-11-05T23:23:18.018Z,16.9
2018-11-05T23:28:26.384Z,16.9
2018-11-05T23:38:42.907Z,16.7
2018-11-05T23:48:59.429Z,16.5
2018-11-05T23:54:07.722Z,16.5
2018-11-05T23:59:16.031Z,16.4
